Hoene Spring, Missouri
Current Conditions -  °F | °C
As of 2:54 PM on Thursday 20 Nov 2014 (Local Time) from KSUS Reporting Station
Broken Clouds Broken Clouds  
Wind Chill:   Ceiling: 9000
Heat Index:   Visibility: 10mi
Dew Point: -8°   Wind: 7mph
Humidity: 43%   Direction: 360°N
Pressure: 30.2"   Gusts: NA
Location:  38.5081°N, 90.6523°W
Report Text: KSUS 202054Z 36006KT 10SM BKN090 04/M08 A3020 RMK AO2 SLP237 T00391078 56012
Loading
Personal Weather Stations






























Interactive Weather Map New forecast layout! Learn more

10-Day Weather Forecast

Advertisements
Track Severe Weather on mobile